createdAt,value
2023-05-23T00:02:09.774Z,95212.72
2023-05-23T00:04:38.487Z,95209.86
2023-05-23T00:07:07.504Z,95201.85
2023-05-23T00:09:36.265Z,95202.91
2023-05-23T00:12:05.321Z,95211.42
2023-05-23T00:14:35.559Z,95212.77
2023-05-23T00:17:05.385Z,95210.27
2023-05-23T00:19:36.011Z,95206.23
2023-05-23T00:22:04.883Z,95204.13
2023-05-23T00:24:33.693Z,95201.64
2023-05-23T00:27:03.979Z,95210.50
2023-05-23T00:29:32.664Z,95201.42
2023-05-23T00:32:01.307Z,95207.42
2023-05-23T00:34:30.681Z,95206.81
2023-05-23T00:36:59.988Z,95202.28
2023-05-23T00:39:28.649Z,95200.77
2023-05-23T00:41:58.046Z,95201.47
2023-05-23T00:44:26.739Z,95202.38
2023-05-23T00:46:58.092Z,95196.70
2023-05-23T00:49:28.387Z,95199.91
2023-05-23T00:51:57.137Z,95192.84
2023-05-23T00:54:31.625Z,95195.85
2023-05-23T00:57:00.656Z,95195.89
2023-05-23T00:59:30.186Z,95198.94
2023-05-23T01:02:03.261Z,95196.56
2023-05-23T01:04:34.537Z,95202.67
2023-05-23T01:07:03.647Z,95201.47
2023-05-23T01:09:33.356Z,95206.55
2023-05-23T01:12:37.134Z,95212.59
2023-05-23T01:15:17.908Z,95212.09
2023-05-23T01:17:55.547Z,95206.62
2023-05-23T01:20:28.556Z,95210.47
2023-05-23T01:23:03.911Z,95195.85
2023-05-23T01:25:48.005Z,95201.38
2023-05-23T01:28:19.972Z,95208.38
2023-05-23T01:30:51.727Z,95207.19
2023-05-23T01:33:23.723Z,95211.17
2023-05-23T01:35:52.976Z,95206.05
2023-05-23T01:38:21.733Z,95204.09
2023-05-23T01:40:50.632Z,95203.45
2023-05-23T01:43:19.605Z,95201.92
2023-05-23T01:45:49.307Z,95205.72
2023-05-23T01:48:19.643Z,95195.83
2023-05-23T01:50:49.039Z,95190.75
2023-05-23T01:53:23.573Z,95188.92
2023-05-23T01:55:54.006Z,95189.24
2023-05-23T01:58:22.781Z,95192.53
2023-05-23T02:00:51.696Z,95189.31
2023-05-23T02:03:20.860Z,95189.42
2023-05-23T02:05:49.714Z,95184.52
2023-05-23T02:08:18.390Z,95191.77
2023-05-23T02:10:47.032Z,95196.72
2023-05-23T02:13:15.784Z,95200.46
2023-05-23T02:15:44.549Z,95193.89
2023-05-23T02:18:13.307Z,95200.95
2023-05-23T02:20:42.027Z,95194.61
2023-05-23T02:23:11.536Z,95190.88
2023-05-23T02:25:40.632Z,95171.09
2023-05-23T02:28:13.141Z,95191.73
2023-05-23T02:30:41.864Z,95195.36
2023-05-23T02:33:11.000Z,95185.12
2023-05-23T02:35:39.877Z,95188.80
2023-05-23T02:38:08.800Z,95187.55
2023-05-23T02:40:37.452Z,95187.06
2023-05-23T02:43:06.247Z,95185.58
2023-05-23T02:45:35.056Z,95184.16
2023-05-23T02:48:03.752Z,95183.98
2023-05-23T02:50:32.443Z,95177.83
2023-05-23T02:53:01.156Z,95177.25
2023-05-23T02:55:29.970Z,95176.90
2023-05-23T02:57:58.941Z,95180.72
2023-05-23T03:00:28.674Z,95175.48
2023-05-23T03:02:57.528Z,95166.52
2023-05-23T03:05:26.515Z,95175.40
2023-05-23T03:07:55.233Z,95177.52
2023-05-23T03:10:24.082Z,95180.78
2023-05-23T03:12:52.884Z,95188.80
2023-05-23T03:15:21.615Z,95175.61
2023-05-23T03:17:50.321Z,95172.36
2023-05-23T03:20:18.994Z,95182.67
2023-05-23T03:22:48.694Z,95180.91
2023-05-23T03:25:17.544Z,95180.83
2023-05-23T03:27:46.232Z,95182.08
2023-05-23T03:30:17.852Z,95185.75
2023-05-23T03:32:46.618Z,95189.02
2023-05-23T03:35:15.652Z,95194.18
2023-05-23T03:37:44.353Z,95199.34
2023-05-23T03:40:13.030Z,95196.09
2023-05-23T03:42:41.745Z,95197.42
2023-05-23T03:45:10.473Z,95201.08
2023-05-23T03:47:39.159Z,95202.45
2023-05-23T03:50:08.559Z,95211.08
2023-05-23T03:52:37.235Z,95207.07
2023-05-23T03:55:06.854Z,95203.06
2023-05-23T03:57:35.470Z,95207.28
2023-05-23T04:00:06.646Z,95212.24
2023-05-23T04:02:35.584Z,95216.45
2023-05-23T04:05:04.401Z,95210.73
2023-05-23T04:07:35.526Z,95208.79
2023-05-23T04:10:05.659Z,95205.55
2023-05-23T04:12:34.621Z,95205.56
2023-05-23T04:15:04.002Z,95204.22
2023-05-23T04:17:32.611Z,95206.13
2023-05-23T04:20:01.742Z,95206.70
2023-05-23T04:22:30.405Z,95200.97
2023-05-23T04:24:59.140Z,95206.13
2023-05-23T04:27:27.841Z,95205.19
2023-05-23T04:29:58.283Z,95211.09
2023-05-23T04:32:27.220Z,95205.00
2023-05-23T04:34:57.041Z,95210.52
2023-05-23T04:37:26.497Z,95212.24
2023-05-23T04:39:55.526Z,95210.91
2023-05-23T04:42:26.065Z,95209.20
2023-05-23T04:44:56.704Z,95207.09
2023-05-23T04:47:27.192Z,95219.31
2023-05-23T04:49:57.719Z,95220.63
2023-05-23T04:52:31.001Z,95225.73
2023-05-23T04:55:00.306Z,95229.76
2023-05-23T05:01:10.397Z,95223.48
2023-05-23T05:03:38.994Z,95220.80
2023-05-23T05:06:08.154Z,95223.46
2023-05-23T05:11:31.805Z,95232.86
2023-05-23T05:14:08.592Z,95241.30
2023-05-23T05:16:38.091Z,95237.86
2023-05-23T05:19:07.462Z,95239.41
2023-05-23T05:21:37.188Z,95244.56
2023-05-23T05:24:06.250Z,95242.86
2023-05-23T05:26:36.915Z,95242.11
2023-05-23T05:29:06.276Z,95245.16
2023-05-23T05:31:38.170Z,95245.14
2023-05-23T05:34:11.738Z,95244.78
2023-05-23T05:37:03.270Z,95238.83
2023-05-23T05:39:35.143Z,95242.48
2023-05-23T05:42:09.938Z,95242.25
2023-05-23T05:44:48.373Z,95249.75
2023-05-23T05:47:18.550Z,95251.78
2023-05-23T05:49:47.779Z,95252.79
2023-05-23T05:52:16.524Z,95246.61
2023-05-23T05:54:45.538Z,95254.23
2023-05-23T05:57:17.401Z,95243.90
2023-05-23T05:59:47.752Z,95247.78
2023-05-23T06:02:16.666Z,95247.83
2023-05-23T06:04:47.153Z,95248.24
2023-05-23T06:07:17.315Z,95253.43
2023-05-23T06:09:50.877Z,95254.66
2023-05-23T06:12:19.559Z,95255.62
2023-05-23T06:14:48.314Z,95249.00
2023-05-23T06:17:17.464Z,95250.20
2023-05-23T06:19:46.158Z,95253.28
2023-05-23T06:22:14.969Z,95252.66
2023-05-23T06:24:45.367Z,95261.80
2023-05-23T06:27:31.249Z,95262.98
2023-05-23T06:29:53.601Z,95253.63
2023-05-23T06:32:22.657Z,95264.67
2023-05-23T06:34:51.515Z,95260.72
2023-05-23T06:37:20.222Z,95260.60
2023-05-23T06:39:48.994Z,95259.97
2023-05-23T06:42:17.731Z,95257.05
2023-05-23T06:44:46.393Z,95257.94
2023-05-23T06:47:16.690Z,95252.48
2023-05-23T06:49:51.502Z,95262.65
2023-05-23T06:52:20.274Z,95259.70
2023-05-23T06:54:48.977Z,95257.28
2023-05-23T06:57:19.179Z,95250.56
2023-05-23T06:59:47.989Z,95248.98
2023-05-23T07:02:16.938Z,95247.28
2023-05-23T07:04:45.854Z,95246.46
2023-05-23T07:07:14.993Z,95240.22
2023-05-23T07:12:34.864Z,95237.14
2023-05-23T07:15:03.909Z,95231.58
2023-05-23T07:17:33.075Z,95232.55
2023-05-23T07:20:12.521Z,95225.39
2023-05-23T07:22:38.755Z,95223.57
2023-05-23T07:25:10.710Z,95220.53
2023-05-23T07:27:39.413Z,95138.39
2023-05-23T07:30:10.055Z,95213.54
2023-05-23T07:32:38.895Z,95212.57
2023-05-23T07:35:16.280Z,95206.95
2023-05-23T07:37:54.691Z,95206.37
2023-05-23T07:40:28.794Z,95196.24
2023-05-23T07:43:00.318Z,95201.25
2023-05-23T07:45:29.066Z,95196.92
2023-05-23T07:47:58.061Z,95207.19
2023-05-23T07:50:30.295Z,95201.55
2023-05-23T07:52:59.168Z,95200.09
2023-05-23T07:55:27.881Z,95202.91
2023-05-23T07:58:14.061Z,95203.39
2023-05-23T08:00:47.869Z,95187.45
2023-05-23T08:03:17.978Z,95200.85
2023-05-23T08:05:46.952Z,95198.70
2023-05-23T08:08:17.722Z,95199.47
2023-05-23T08:10:47.309Z,95190.36
2023-05-23T08:13:17.776Z,95189.55
2023-05-23T08:15:46.503Z,95195.16
2023-05-23T08:18:16.976Z,95189.30
2023-05-23T08:20:46.050Z,95189.56
2023-05-23T08:23:14.905Z,95189.36
2023-05-23T08:25:46.907Z,95201.09
2023-05-23T08:28:15.655Z,95193.59
2023-05-23T08:30:47.062Z,95192.00
2023-05-23T08:33:15.922Z,95191.80
2023-05-23T08:35:44.676Z,95199.95
2023-05-23T08:38:13.657Z,95184.86
2023-05-23T08:43:25.509Z,95175.60
2023-05-23T08:46:02.171Z,95174.81
2023-05-23T08:48:42.164Z,95177.34
2023-05-23T08:51:23.803Z,95180.14
2023-05-23T08:53:55.566Z,95178.37
2023-05-23T08:56:27.180Z,95178.88
2023-05-23T08:58:56.886Z,95174.73
2023-05-23T09:01:27.879Z,95172.98
2023-05-23T09:04:13.441Z,95166.38
2023-05-23T09:06:41.947Z,95170.36
2023-05-23T09:09:11.124Z,95165.08
2023-05-23T09:11:40.391Z,95164.67
2023-05-23T09:14:13.702Z,95167.17
2023-05-23T09:16:44.087Z,95161.15
2023-05-23T09:19:28.501Z,95157.04
2023-05-23T09:21:57.521Z,95156.56
2023-05-23T09:24:32.493Z,95152.55
2023-05-23T09:27:02.021Z,95152.17
2023-05-23T09:32:31.574Z,95141.43
2023-05-23T09:35:03.468Z,95146.85
2023-05-23T09:37:38.033Z,95143.16
2023-05-23T09:40:15.531Z,95141.02
2023-05-23T09:42:47.090Z,95139.14
2023-05-23T09:45:24.400Z,95139.95
2023-05-23T09:48:18.017Z,95142.90
2023-05-23T09:50:52.702Z,95133.13
2023-05-23T09:53:29.253Z,95130.47
2023-05-23T09:56:00.928Z,95125.24
2023-05-23T09:58:33.540Z,95124.06
2023-05-23T10:01:04.060Z,95106.05
2023-05-23T10:03:46.845Z,95125.39
2023-05-23T10:06:45.865Z,95115.23
2023-05-23T10:09:17.564Z,95117.02
2023-05-23T10:12:17.509Z,95112.95
2023-05-23T10:14:48.944Z,95115.42
2023-05-23T10:17:20.852Z,95110.51
2023-05-23T10:19:58.577Z,95120.63
2023-05-23T10:22:27.712Z,95109.16
2023-05-23T10:24:57.617Z,95108.48
2023-05-23T10:27:30.588Z,95106.27
2023-05-23T10:30:10.369Z,95108.81
2023-05-23T10:32:40.986Z,95100.57
2023-05-23T10:35:33.566Z,95101.44
2023-05-23T10:38:20.358Z,95100.34
2023-05-23T10:40:57.166Z,95097.16
2023-05-23T10:43:34.792Z,95103.70
2023-05-23T10:46:05.430Z,95096.56
2023-05-23T10:48:40.081Z,95092.86
2023-05-23T10:51:17.661Z,95082.70
2023-05-23T10:53:54.503Z,95085.31
2023-05-23T10:56:25.328Z,95084.66
2023-05-23T10:58:55.994Z,95084.58
2023-05-23T11:01:25.525Z,95076.94
2023-05-23T11:03:56.279Z,95078.47
2023-05-23T11:06:33.881Z,95081.94
2023-05-23T11:09:23.704Z,95079.66
2023-05-23T11:12:14.391Z,95072.56
2023-05-23T11:14:57.977Z,95072.27
2023-05-23T11:17:47.640Z,95070.62
2023-05-23T11:23:37.244Z,95068.96
2023-05-23T11:26:06.190Z,95070.02
2023-05-23T11:28:46.545Z,95068.95
2023-05-23T11:31:15.368Z,95024.30
2023-05-23T11:33:50.641Z,95061.98
2023-05-23T11:39:18.334Z,95053.07
2023-05-23T11:41:46.860Z,95052.94
2023-05-23T11:44:15.613Z,95044.45
2023-05-23T11:46:47.345Z,95055.36
2023-05-23T11:49:19.609Z,95044.30
2023-05-23T11:51:47.918Z,95042.80
2023-05-23T11:54:18.471Z,95037.67
2023-05-23T11:56:47.381Z,95053.80
2023-05-23T11:59:18.322Z,95049.24
2023-05-23T12:01:49.770Z,95039.14
2023-05-23T12:04:21.581Z,95030.83
2023-05-23T12:06:53.132Z,95030.08
2023-05-23T12:09:22.314Z,95034.84
2023-05-23T12:11:52.622Z,95033.61
2023-05-23T12:14:25.726Z,95031.43
2023-05-23T12:17:05.488Z,95016.89
2023-05-23T12:19:40.189Z,95021.91
2023-05-23T12:22:11.717Z,95019.47
2023-05-23T12:24:43.400Z,95020.32
2023-05-23T12:27:12.145Z,95016.95
2023-05-23T12:29:43.826Z,95009.73
2023-05-23T12:32:12.641Z,95014.15
2023-05-23T12:34:44.463Z,95010.02
2023-05-23T12:40:23.006Z,94994.89
2023-05-23T12:43:00.975Z,94993.92
2023-05-23T12:46:23.994Z,94995.20
2023-05-23T12:48:36.218Z,94992.81
2023-05-23T12:51:05.498Z,94994.34
2023-05-23T12:53:41.153Z,94982.95
2023-05-23T12:56:10.084Z,94993.90
2023-05-23T12:58:57.294Z,94985.16
2023-05-23T13:01:53.847Z,94980.50
2023-05-23T13:04:22.407Z,94981.24
2023-05-23T13:06:56.716Z,94984.31
2023-05-23T13:09:32.144Z,94977.34
2023-05-23T13:15:07.488Z,94968.33
2023-05-23T13:17:49.954Z,94972.57
2023-05-23T13:23:21.293Z,94959.30
2023-05-23T13:25:53.247Z,94968.84
2023-05-23T13:28:25.543Z,94974.42
2023-05-23T13:30:54.520Z,94968.30
2023-05-23T13:33:23.894Z,94967.92
2023-05-23T13:35:53.047Z,94968.52
2023-05-23T13:38:36.590Z,94970.47
2023-05-23T13:41:07.355Z,94966.47
2023-05-23T13:43:51.422Z,94970.11
2023-05-23T13:46:18.976Z,94979.52
2023-05-23T13:48:47.710Z,94969.37
2023-05-23T13:51:19.698Z,94983.98
2023-05-23T13:57:02.004Z,94975.00
2023-05-23T13:59:31.008Z,94970.69
2023-05-23T14:02:09.935Z,94973.67
2023-05-23T14:04:38.973Z,94968.38
2023-05-23T14:07:23.537Z,94979.96
2023-05-23T14:09:52.911Z,94974.11
2023-05-23T14:12:21.312Z,94973.64
2023-05-23T14:14:50.206Z,94972.05
2023-05-23T14:17:19.216Z,94975.55
2023-05-23T14:22:38.919Z,94969.64
2023-05-23T14:25:13.677Z,94961.84
2023-05-23T14:27:42.412Z,94963.52
2023-05-23T14:30:13.087Z,94969.94
2023-05-23T14:32:47.777Z,94963.81
2023-05-23T14:35:16.548Z,94962.48
2023-05-23T14:37:48.255Z,94968.35
2023-05-23T14:43:12.877Z,94966.55
2023-05-23T14:52:01.781Z,94960.83
2023-05-23T14:57:50.833Z,94963.58
2023-05-23T15:00:25.770Z,94954.98
2023-05-23T15:05:49.169Z,94951.46
2023-05-23T15:08:18.634Z,94945.91
2023-05-23T15:11:16.086Z,94944.16
2023-05-23T15:14:02.749Z,94945.01
2023-05-23T15:16:25.690Z,94949.64
2023-05-23T15:18:54.484Z,94944.36
2023-05-23T15:21:23.280Z,94944.34
2023-05-23T15:24:00.925Z,94945.35
2023-05-23T15:26:29.980Z,94943.13
2023-05-23T15:28:59.060Z,94939.22
2023-05-23T15:31:28.402Z,94951.05
2023-05-23T15:33:57.207Z,94943.34
2023-05-23T15:36:27.568Z,94946.69
2023-05-23T15:38:57.760Z,94942.43
2023-05-23T15:41:36.587Z,94951.30
2023-05-23T15:44:06.088Z,94948.78
2023-05-23T15:46:37.088Z,94941.41
2023-05-23T15:49:24.552Z,94941.69
2023-05-23T15:52:11.593Z,94936.23
2023-05-23T15:54:40.446Z,94939.16
2023-05-23T15:57:12.211Z,94942.11
2023-05-23T15:59:42.526Z,94939.59
2023-05-23T16:02:11.387Z,94944.67
2023-05-23T16:07:40.836Z,94945.23
2023-05-23T16:10:27.962Z,94945.59
2023-05-23T16:12:58.178Z,94943.31
2023-05-23T16:15:26.953Z,94947.47
2023-05-23T16:17:55.813Z,94949.34
2023-05-23T16:20:24.737Z,94951.23
2023-05-23T16:22:53.538Z,94946.13
2023-05-23T16:25:22.588Z,94943.74
2023-05-23T16:27:57.071Z,94954.25
2023-05-23T16:30:45.301Z,94950.38
2023-05-23T16:36:09.462Z,94961.59
2023-05-23T16:38:47.784Z,94959.16
2023-05-23T16:41:30.594Z,94959.73
2023-05-23T16:44:05.711Z,94963.41
2023-05-23T16:46:36.600Z,94963.59
2023-05-23T16:49:30.437Z,94971.16
2023-05-23T16:51:59.179Z,94969.07
2023-05-23T16:54:30.894Z,94972.05
2023-05-23T16:57:01.262Z,94966.91
2023-05-23T16:59:31.861Z,94966.73
2023-05-23T17:02:00.758Z,94967.96
2023-05-23T17:04:29.620Z,94973.21
2023-05-23T17:07:05.989Z,94973.80
2023-05-23T17:09:48.131Z,94971.98
2023-05-23T17:12:18.510Z,94975.07
2023-05-23T17:14:49.042Z,94965.64
2023-05-23T17:17:17.874Z,94971.68
2023-05-23T17:19:46.697Z,94977.80
2023-05-23T17:22:15.434Z,94974.58
2023-05-23T17:24:44.116Z,94977.66
2023-05-23T17:27:17.370Z,94977.06
2023-05-23T17:29:46.176Z,94980.73
2023-05-23T17:32:15.358Z,94985.06
2023-05-23T17:34:44.385Z,94983.30
2023-05-23T17:37:20.018Z,94986.16
2023-05-23T17:39:50.405Z,94968.41
2023-05-23T17:42:19.163Z,94986.77
2023-05-23T17:44:47.938Z,94990.16
2023-05-23T17:47:18.387Z,94990.18
2023-05-23T17:49:48.693Z,94969.64
2023-05-23T17:52:17.790Z,94988.42
2023-05-23T17:54:47.564Z,94990.09
2023-05-23T17:57:17.743Z,94989.31
2023-05-23T17:59:46.716Z,94993.58
2023-05-23T18:02:29.437Z,94995.19
2023-05-23T18:04:47.672Z,95002.59
2023-05-23T18:07:18.740Z,95003.72
2023-05-23T18:09:48.488Z,95006.92
2023-05-23T18:12:17.916Z,95008.29
2023-05-23T18:14:46.771Z,95008.69
2023-05-23T18:17:17.493Z,95012.13
2023-05-23T18:19:49.622Z,95011.21
2023-05-23T18:22:20.018Z,95009.00
2023-05-23T18:24:48.689Z,95025.03
2023-05-23T18:27:17.633Z,95030.44
2023-05-23T18:29:46.335Z,95021.00
2023-05-23T18:32:16.560Z,95030.95
2023-05-23T18:34:45.194Z,95031.61
2023-05-23T18:37:16.260Z,95033.83
2023-05-23T18:39:45.011Z,95037.84
2023-05-23T18:42:16.648Z,95042.58
2023-05-23T18:44:49.997Z,95048.20
2023-05-23T18:47:18.571Z,95050.73
2023-05-23T18:49:50.489Z,95046.83
2023-05-23T18:52:23.200Z,95053.08
2023-05-23T18:54:55.047Z,95062.30
2023-05-23T18:57:24.222Z,95058.46
2023-05-23T18:59:52.987Z,95068.80
2023-05-23T19:02:21.815Z,95068.96
2023-05-23T19:04:56.758Z,95076.65
2023-05-23T19:07:25.221Z,95079.17
2023-05-23T19:09:54.128Z,95089.91
2023-05-23T19:12:22.792Z,95096.36
2023-05-23T19:14:52.058Z,95101.16
2023-05-23T19:17:20.919Z,95111.72
2023-05-23T19:19:53.727Z,95112.36
2023-05-23T19:22:27.876Z,95118.70
2023-05-23T19:24:55.178Z,95118.27
2023-05-23T19:27:26.134Z,95118.81
2023-05-23T19:30:02.724Z,95126.09
2023-05-23T19:32:33.705Z,95130.23
2023-05-23T19:38:18.984Z,95127.69
2023-05-23T19:40:49.970Z,95128.45
2023-05-23T19:43:22.289Z,95134.80
2023-05-23T19:46:03.484Z,95135.66
2023-05-23T19:48:42.934Z,95138.19
2023-05-23T19:51:13.873Z,95137.00
2023-05-23T19:53:54.092Z,95143.14
2023-05-23T20:03:05.416Z,95139.33
2023-05-23T20:05:37.362Z,95140.27
2023-05-23T20:08:06.435Z,95137.66
2023-05-23T20:10:35.485Z,95136.72
2023-05-23T20:13:08.597Z,95136.39
2023-05-23T20:15:39.945Z,95138.22
2023-05-23T20:18:08.281Z,95133.34
2023-05-23T20:20:43.249Z,95142.57
2023-05-23T20:23:23.320Z,95139.17
2023-05-23T20:26:09.570Z,95140.23
2023-05-23T20:28:39.743Z,95137.70
2023-05-23T20:34:21.052Z,95143.30
2023-05-23T20:36:50.230Z,95148.44
2023-05-23T20:39:21.832Z,95073.59
2023-05-23T20:41:49.593Z,95150.30
2023-05-23T20:44:18.499Z,95152.42
2023-05-23T20:46:47.665Z,95148.98
2023-05-23T20:49:25.339Z,95149.27
2023-05-23T20:51:54.528Z,95151.63
2023-05-23T20:54:28.430Z,95146.82
2023-05-23T20:57:50.312Z,95149.75
2023-05-23T21:00:20.869Z,95143.14
2023-05-23T21:02:54.163Z,95142.16
2023-05-23T21:05:30.685Z,95144.38
2023-05-23T21:08:05.742Z,95148.04
2023-05-23T21:10:34.557Z,95151.02
2023-05-23T21:13:03.935Z,95153.14
2023-05-23T21:15:32.728Z,95155.11
2023-05-23T21:18:07.896Z,95149.50
2023-05-23T21:20:38.382Z,95152.02
2023-05-23T21:23:11.577Z,95147.47
2023-05-23T21:25:40.440Z,95148.86
2023-05-23T21:28:09.167Z,95148.11
2023-05-23T21:30:41.684Z,95153.66
2023-05-23T21:33:13.484Z,95155.48
2023-05-23T21:35:42.457Z,95162.22
2023-05-23T21:38:11.603Z,95169.16
2023-05-23T21:40:40.980Z,95177.63
2023-05-23T21:43:09.929Z,95181.65
2023-05-23T21:45:38.654Z,95179.94
2023-05-23T21:48:07.382Z,95171.69
2023-05-23T21:50:36.164Z,95174.80
2023-05-23T21:53:04.772Z,95176.69
2023-05-23T21:55:33.385Z,95183.81
2023-05-23T21:58:03.733Z,95188.02
2023-05-23T22:00:32.462Z,95188.80
2023-05-23T22:03:01.217Z,95185.36
2023-05-23T22:05:30.015Z,95182.86
2023-05-23T22:07:58.634Z,95185.73
2023-05-23T22:10:27.329Z,95188.80
2023-05-23T22:13:17.605Z,95186.67
2023-05-23T22:15:46.744Z,95179.97
2023-05-23T22:18:16.299Z,95184.06
2023-05-23T22:20:45.324Z,95190.41
2023-05-23T22:23:15.575Z,95187.95
2023-05-23T22:25:44.773Z,95180.30
2023-05-23T22:28:13.599Z,95181.64
2023-05-23T22:30:42.477Z,95183.19
2023-05-23T22:33:13.890Z,95180.32
2023-05-23T22:35:43.409Z,95182.80
2023-05-23T22:38:14.699Z,95186.04
2023-05-23T22:40:43.728Z,95183.75
2023-05-23T22:43:12.586Z,95185.83
2023-05-23T22:45:42.617Z,95186.42
2023-05-23T22:48:11.866Z,95185.46
2023-05-23T22:50:44.593Z,95183.56
2023-05-23T22:53:15.423Z,95177.44
2023-05-23T22:55:44.482Z,95179.92
2023-05-23T22:58:13.887Z,95182.22
2023-05-23T23:00:43.764Z,95179.73
2023-05-23T23:03:15.537Z,95171.89
2023-05-23T23:05:44.558Z,95158.33
2023-05-23T23:08:13.477Z,95166.36
2023-05-23T23:10:45.389Z,95171.34
2023-05-23T23:13:16.894Z,95161.77
2023-05-23T23:15:48.734Z,95158.72
2023-05-23T23:18:19.087Z,95156.59
2023-05-23T23:20:48.557Z,95161.95
2023-05-23T23:23:17.429Z,95164.64
2023-05-23T23:25:47.798Z,95161.20
2023-05-23T23:28:17.749Z,95159.09
2023-05-23T23:30:46.936Z,95158.89
2023-05-23T23:33:16.085Z,95156.41
2023-05-23T23:35:46.683Z,95155.42
2023-05-23T23:38:16.445Z,95158.27
2023-05-23T23:40:45.841Z,95159.23
2023-05-23T23:43:19.386Z,95156.01
2023-05-23T23:45:48.115Z,95156.19
2023-05-23T23:48:16.833Z,95158.67
2023-05-23T23:50:46.999Z,95143.00
2023-05-23T23:53:16.907Z,95143.01
2023-05-23T23:55:45.745Z,95147.95
2023-05-23T23:58:14.581Z,95144.86
